Terminal Aerodrome Forecast
Issued by NWS

Current Version | Previous Version | Text Only | Print | Product List | Glossary On
Versions: 1 2 3 4 5 6 7 8 9 10 11 12 13 14 15 16 17 18 19 20 21 22 23 24 25 26 27 28 29 30
000 FTUS41 KOKX 021120 TAFGON TAF KGON 021120Z 0212/0312 03010KT P6SM -RA BKN009 OVC012 FM021700 03012KT P6SM OVC010 TEMPO 0217/0220 5SM -RA BR BKN008 FM030200 03010KT P6SM OVC020 FM030500 05006KT P6SM OVC035=

USA.gov is the U.S. government's official web portal to all federal, state and local government web resources and services.